createdAt,value
2019-01-23T00:01:28.222Z,13.50
2019-01-23T00:03:58.654Z,12.77
2019-01-23T00:06:28.329Z,13.33
2019-01-23T00:08:58.222Z,13.97
2019-01-23T00:11:28.721Z,12.73
2019-01-23T00:13:59.129Z,13.23
2019-01-23T00:16:30.036Z,14.13
2019-01-23T00:19:00.413Z,13.73
2019-01-23T00:21:30.773Z,12.87
2019-01-23T00:24:02.307Z,13.07
2019-01-23T00:26:32.985Z,13.03
2019-01-23T00:29:02.773Z,14.00
2019-01-23T00:31:32.952Z,13.67
2019-01-23T00:34:03.586Z,12.37
2019-01-23T00:36:33.718Z,12.57
2019-01-23T00:39:05.432Z,12.13
2019-01-23T00:41:35.288Z,11.50
2019-01-23T00:44:06.242Z,11.93
2019-01-23T00:46:36.185Z,12.50
2019-01-23T00:49:06.585Z,12.20
2019-01-23T00:51:36.304Z,12.33
2019-01-23T00:54:06.066Z,12.10
2019-01-23T00:56:37.628Z,11.43
2019-01-23T00:59:08.220Z,11.60
2019-01-23T01:01:38.583Z,10.77
2019-01-23T01:04:08.992Z,10.73
2019-01-23T01:06:39.379Z,11.60
2019-01-23T01:09:11.073Z,11.07
2019-01-23T01:11:40.904Z,11.30
2019-01-23T01:14:10.745Z,9.87
2019-01-23T01:16:40.717Z,10.90
2019-01-23T01:19:11.024Z,10.37
2019-01-23T01:21:41.401Z,10.77
2019-01-23T01:24:13.506Z,9.53
2019-01-23T01:26:43.901Z,9.20
2019-01-23T01:29:14.022Z,9.60
2019-01-23T01:31:43.965Z,9.10
2019-01-23T01:34:13.647Z,10.43
2019-01-23T01:36:44.118Z,10.03
2019-01-23T01:39:14.973Z,10.10
2019-01-23T01:41:44.745Z,9.73
2019-01-23T01:44:14.685Z,10.37
2019-01-23T01:46:44.984Z,8.57
2019-01-23T01:49:15.316Z,9.50
2019-01-23T01:51:45.661Z,10.63
2019-01-23T01:54:16.824Z,11.13
2019-01-23T01:56:46.413Z,11.17
2019-01-23T01:59:16.066Z,11.37
2019-01-23T02:01:47.036Z,11.63
2019-01-23T02:04:17.473Z,11.30
2019-01-23T02:06:48.312Z,11.23
2019-01-23T02:09:18.245Z,12.27
2019-01-23T02:11:49.214Z,10.47
2019-01-23T02:14:19.612Z,11.67
2019-01-23T02:16:49.525Z,11.40
2019-01-23T02:19:19.481Z,9.63
2019-01-23T02:21:50.320Z,8.30
2019-01-23T02:24:20.241Z,9.10
2019-01-23T02:26:50.513Z,9.70
2019-01-23T02:29:20.865Z,9.47
2019-01-23T02:31:51.653Z,8.97
2019-01-23T02:34:21.177Z,10.07
2019-01-23T02:36:51.579Z,9.87
2019-01-23T02:39:21.511Z,9.33
2019-01-23T02:41:51.897Z,9.73
2019-01-23T02:44:21.909Z,9.43
2019-01-23T02:46:51.675Z,9.90
2019-01-23T02:49:22.152Z,8.97
2019-01-23T02:51:53.616Z,9.90
2019-01-23T02:54:23.789Z,9.43
2019-01-23T02:56:53.609Z,8.53
2019-01-23T02:59:23.766Z,6.97
2019-01-23T03:01:54.162Z,7.10
2019-01-23T03:04:25.493Z,7.63
2019-01-23T03:06:55.377Z,6.97
2019-01-23T03:09:25.661Z,7.33
2019-01-23T03:11:55.554Z,6.73
2019-01-23T03:14:25.501Z,8.20
2019-01-23T03:16:55.984Z,7.60
2019-01-23T03:19:26.869Z,7.40
2019-01-23T03:21:57.306Z,7.80
2019-01-23T03:24:27.184Z,6.17
2019-01-23T03:26:58.457Z,7.07
2019-01-23T03:29:28.361Z,6.57
2019-01-23T03:31:58.278Z,6.83
2019-01-23T03:34:28.262Z,6.80
2019-01-23T03:36:58.793Z,6.77
2019-01-23T03:39:28.363Z,7.03
2019-01-23T03:41:59.322Z,6.53
2019-01-23T03:44:29.146Z,6.20
2019-01-23T03:46:58.898Z,6.73
2019-01-23T03:49:29.921Z,6.30
2019-01-23T03:51:59.461Z,6.20
2019-01-23T03:54:29.390Z,6.63
2019-01-23T03:56:59.887Z,6.83
2019-01-23T03:59:32.327Z,6.57
2019-01-23T04:02:03.097Z,6.77
2019-01-23T04:04:32.553Z,6.57
2019-01-23T04:07:02.968Z,7.43
2019-01-23T04:09:32.779Z,6.70
2019-01-23T04:12:02.578Z,7.47
2019-01-23T04:14:32.893Z,7.40
2019-01-23T04:17:03.482Z,8.50
2019-01-23T04:19:33.401Z,7.10
2019-01-23T04:22:03.128Z,7.47
2019-01-23T04:24:33.560Z,7.47
2019-01-23T04:27:04.021Z,6.90
2019-01-23T04:29:39.608Z,7.00
2019-01-23T04:32:05.017Z,6.57
2019-01-23T04:34:35.592Z,7.07
2019-01-23T04:37:06.661Z,7.50
2019-01-23T04:39:36.533Z,8.53
2019-01-23T04:42:07.014Z,7.50
2019-01-23T04:44:36.966Z,7.50
2019-01-23T04:47:07.454Z,7.30
2019-01-23T04:49:38.032Z,8.13
2019-01-23T04:52:22.341Z,8.07
2019-01-23T04:54:52.696Z,7.37
2019-01-23T04:57:22.959Z,8.40
2019-01-23T04:59:53.968Z,8.53
2019-01-23T05:02:23.881Z,9.00
2019-01-23T05:04:54.266Z,8.00
2019-01-23T05:07:24.198Z,9.53
2019-01-23T05:09:53.902Z,8.93
2019-01-23T05:12:24.321Z,9.83
2019-01-23T05:14:54.362Z,10.47
2019-01-23T05:17:24.348Z,9.00
2019-01-23T05:19:56.227Z,10.13
2019-01-23T05:22:26.437Z,9.97
2019-01-23T05:24:56.285Z,9.23
2019-01-23T05:27:25.761Z,9.43
2019-01-23T05:29:57.252Z,9.87
2019-01-23T05:32:27.102Z,9.57
2019-01-23T05:34:57.613Z,10.57
2019-01-23T05:37:26.985Z,9.30
2019-01-23T05:39:57.909Z,9.93
2019-01-23T05:42:28.820Z,10.07
2019-01-23T05:44:59.777Z,10.23
2019-01-23T05:47:30.657Z,9.10
2019-01-23T05:50:01.087Z,9.40
2019-01-23T05:52:30.969Z,9.37
2019-01-23T05:55:01.376Z,9.40
2019-01-23T05:57:31.662Z,9.27
2019-01-23T06:00:02.380Z,9.23
2019-01-23T06:02:33.946Z,9.30
2019-01-23T06:05:04.413Z,10.07
2019-01-23T06:07:34.876Z,9.57
2019-01-23T06:10:05.534Z,10.10
2019-01-23T06:12:35.963Z,10.33
2019-01-23T06:15:06.748Z,10.80
2019-01-23T06:17:37.143Z,9.87
2019-01-23T06:20:08.425Z,9.60
2019-01-23T06:22:38.298Z,10.97
2019-01-23T06:25:09.531Z,10.70
2019-01-23T06:27:39.459Z,10.40
2019-01-23T06:30:13.123Z,9.63
2019-01-23T06:32:42.710Z,9.90
2019-01-23T06:35:12.760Z,10.00
2019-01-23T06:37:43.172Z,8.50
2019-01-23T06:40:13.200Z,9.03
2019-01-23T06:42:44.801Z,8.83
2019-01-23T06:45:15.697Z,8.57
2019-01-23T06:47:48.991Z,8.80
2019-01-23T06:50:22.625Z,8.87
2019-01-23T06:52:52.225Z,8.17
2019-01-23T06:55:22.718Z,8.53
2019-01-23T06:57:53.713Z,8.80
2019-01-23T07:00:24.369Z,9.10
2019-01-23T07:02:54.238Z,9.10
2019-01-23T07:05:25.964Z,8.57
2019-01-23T07:07:55.719Z,8.13
2019-01-23T07:10:27.644Z,7.90
2019-01-23T07:12:58.560Z,8.23
2019-01-23T07:15:28.437Z,7.93
2019-01-23T07:17:58.108Z,7.80
2019-01-23T07:20:29.193Z,8.00
2019-01-23T07:22:58.972Z,9.10
2019-01-23T07:25:29.693Z,9.37
2019-01-23T07:27:59.988Z,8.20
2019-01-23T07:30:31.450Z,8.27
2019-01-23T07:33:01.973Z,7.67
2019-01-23T07:35:31.571Z,7.67
2019-01-23T07:38:02.072Z,7.57
2019-01-23T07:40:31.945Z,8.10
2019-01-23T07:43:03.985Z,8.10
2019-01-23T07:45:34.557Z,8.30
2019-01-23T07:48:04.337Z,9.50
2019-01-23T07:50:34.773Z,8.70
2019-01-23T07:53:05.178Z,8.20
2019-01-23T07:55:34.932Z,8.57
2019-01-23T07:58:04.740Z,8.53
2019-01-23T08:00:35.264Z,8.17
2019-01-23T08:03:05.193Z,8.47
2019-01-23T08:05:34.666Z,7.60
2019-01-23T08:08:04.994Z,8.33
2019-01-23T08:10:34.734Z,8.53
2019-01-23T08:13:04.933Z,8.93
2019-01-23T08:15:36.288Z,9.70
2019-01-23T08:18:07.073Z,9.30
2019-01-23T08:20:37.561Z,8.77
2019-01-23T08:23:07.237Z,8.07
2019-01-23T08:25:37.528Z,7.90
2019-01-23T08:28:09.405Z,8.90
2019-01-23T08:30:40.979Z,7.87
2019-01-23T08:33:10.808Z,8.43
2019-01-23T08:35:40.572Z,8.00
2019-01-23T08:38:11.453Z,7.80
2019-01-23T08:40:43.129Z,7.67
2019-01-23T08:43:12.908Z,8.47
2019-01-23T08:45:42.883Z,8.43
2019-01-23T08:48:13.319Z,9.20
2019-01-23T08:50:43.881Z,9.00
2019-01-23T08:53:13.536Z,9.73
2019-01-23T08:55:42.934Z,7.90
2019-01-23T08:58:13.104Z,6.87
2019-01-23T09:00:46.001Z,6.70
2019-01-23T09:03:15.701Z,7.63
2019-01-23T09:05:45.521Z,6.93
2019-01-23T09:08:14.794Z,8.17
2019-01-23T09:10:46.564Z,8.07
2019-01-23T09:13:16.541Z,8.57
2019-01-23T09:15:46.453Z,7.67
2019-01-23T09:18:16.708Z,8.10
2019-01-23T09:20:46.654Z,7.90
2019-01-23T09:23:16.517Z,7.70
2019-01-23T09:25:49.797Z,9.27
2019-01-23T09:28:19.226Z,8.53
2019-01-23T09:30:56.116Z,8.53
2019-01-23T09:33:44.589Z,7.60
2019-01-23T09:36:31.804Z,7.27
2019-01-23T09:39:15.379Z,7.50
2019-01-23T09:42:16.577Z,6.93
2019-01-23T09:45:04.357Z,7.80
2019-01-23T09:47:52.668Z,6.50
2019-01-23T09:50:28.475Z,6.47
2019-01-23T09:53:19.035Z,6.27
2019-01-23T09:55:49.417Z,7.43
2019-01-23T09:58:19.431Z,7.70
2019-01-23T10:00:49.433Z,7.40
2019-01-23T10:03:22.923Z,7.10
2019-01-23T10:05:52.025Z,7.20
2019-01-23T10:08:21.609Z,7.40
2019-01-23T10:10:51.854Z,7.07
2019-01-23T10:13:21.580Z,6.40
2019-01-23T10:15:55.516Z,7.50
2019-01-23T10:18:25.613Z,7.13
2019-01-23T10:20:55.826Z,7.67
2019-01-23T10:23:26.282Z,7.43
2019-01-23T10:25:56.125Z,7.30
2019-01-23T10:28:26.840Z,8.13
2019-01-23T10:30:56.697Z,7.30
2019-01-23T10:33:26.331Z,7.57
2019-01-23T10:35:56.163Z,7.93
2019-01-23T10:38:25.870Z,7.00
2019-01-23T10:40:56.029Z,6.17
2019-01-23T10:43:27.825Z,7.10
2019-01-23T10:45:57.217Z,7.03
2019-01-23T10:48:27.521Z,6.73
2019-01-23T10:50:57.880Z,8.00
2019-01-23T10:53:28.682Z,7.17
2019-01-23T10:55:59.170Z,6.90
2019-01-23T10:58:29.194Z,7.23
2019-01-23T11:00:59.673Z,8.10
2019-01-23T11:03:29.621Z,8.27
2019-01-23T11:05:59.549Z,8.83
2019-01-23T11:08:29.233Z,7.83
2019-01-23T11:11:00.281Z,12.67
2019-01-23T11:13:29.893Z,9.43
2019-01-23T11:16:00.314Z,7.23
2019-01-23T11:18:30.109Z,6.97
2019-01-23T11:20:59.971Z,6.13
2019-01-23T11:23:30.013Z,5.47
2019-01-23T11:25:59.920Z,5.53
2019-01-23T11:28:31.946Z,6.13
2019-01-23T11:31:01.816Z,5.83
2019-01-23T11:33:31.426Z,5.90
2019-01-23T11:36:01.562Z,6.87
2019-01-23T11:38:32.510Z,6.37
2019-01-23T11:41:02.973Z,6.80
2019-01-23T11:43:32.661Z,6.90
2019-01-23T11:46:03.125Z,7.60
2019-01-23T11:48:38.528Z,8.10
2019-01-23T11:51:09.341Z,7.17
2019-01-23T11:53:40.629Z,7.87
2019-01-23T11:56:11.050Z,8.47
2019-01-23T11:58:41.357Z,8.50
2019-01-23T12:01:10.633Z,8.73
2019-01-23T12:03:41.114Z,8.47
2019-01-23T12:06:11.056Z,9.47
2019-01-23T12:08:41.461Z,9.03
2019-01-23T12:11:11.134Z,9.53
2019-01-23T12:13:41.904Z,9.30
2019-01-23T12:16:11.581Z,10.13
2019-01-23T12:18:41.433Z,10.50
2019-01-23T12:21:11.350Z,10.03
2019-01-23T12:23:41.361Z,11.43
2019-01-23T12:26:11.629Z,11.57
2019-01-23T12:28:42.104Z,10.73
2019-01-23T12:31:12.147Z,10.67
2019-01-23T12:33:43.125Z,10.93
2019-01-23T12:36:13.411Z,11.37
2019-01-23T12:38:43.329Z,11.00
2019-01-23T12:41:13.573Z,11.63
2019-01-23T12:43:43.900Z,11.03
2019-01-23T12:46:13.905Z,11.00
2019-01-23T12:48:44.149Z,10.63
2019-01-23T12:51:13.859Z,11.03
2019-01-23T12:53:43.989Z,11.03
2019-01-23T12:56:14.720Z,11.80
2019-01-23T12:58:44.497Z,10.07
2019-01-23T13:01:15.699Z,12.23
2019-01-23T13:03:45.810Z,11.20
2019-01-23T13:06:16.089Z,11.23
2019-01-23T13:08:45.840Z,11.23
2019-01-23T13:11:16.161Z,11.77
2019-01-23T13:13:46.638Z,10.57
2019-01-23T13:16:17.077Z,10.20
2019-01-23T13:18:47.709Z,10.27
2019-01-23T13:21:17.498Z,11.10
2019-01-23T13:23:48.009Z,10.17
2019-01-23T13:26:18.894Z,9.97
2019-01-23T13:28:49.251Z,9.27
2019-01-23T13:31:21.248Z,9.37
2019-01-23T13:33:51.590Z,9.13
2019-01-23T13:36:21.524Z,9.27
2019-01-23T13:38:52.232Z,9.07
2019-01-23T13:41:22.683Z,9.17
2019-01-23T13:43:53.030Z,8.37
2019-01-23T13:46:23.457Z,8.47
2019-01-23T13:48:55.017Z,8.80
2019-01-23T13:51:25.497Z,9.27
2019-01-23T13:53:56.055Z,9.27
2019-01-23T13:56:26.754Z,9.07
2019-01-23T13:58:56.384Z,9.07
2019-01-23T14:01:26.445Z,9.20
2019-01-23T14:03:56.585Z,9.90
2019-01-23T14:06:26.277Z,9.90
2019-01-23T14:08:57.816Z,9.60
2019-01-23T14:11:27.569Z,9.10
2019-01-23T14:13:57.985Z,8.40
2019-01-23T14:16:27.617Z,9.37
2019-01-23T14:18:57.557Z,9.40
2019-01-23T14:21:27.914Z,9.00
2019-01-23T14:23:58.921Z,9.03
2019-01-23T14:26:29.305Z,9.90
2019-01-23T14:28:59.266Z,9.70
2019-01-23T14:31:29.465Z,8.50
2019-01-23T14:33:59.618Z,9.47
2019-01-23T14:36:29.562Z,8.53
2019-01-23T14:39:00.217Z,8.27
2019-01-23T14:41:31.154Z,8.43
2019-01-23T14:44:01.048Z,7.67
2019-01-23T14:46:31.637Z,7.10
2019-01-23T14:49:02.062Z,7.27
2019-01-23T14:51:31.786Z,7.80
2019-01-23T14:54:02.239Z,6.90
2019-01-23T14:56:32.266Z,8.37
2019-01-23T14:59:02.545Z,7.27
2019-01-23T15:01:32.429Z,8.03
2019-01-23T15:04:03.353Z,7.80
2019-01-23T15:06:33.602Z,7.83
2019-01-23T15:09:03.801Z,7.73
2019-01-23T15:11:34.030Z,8.40
2019-01-23T15:14:04.903Z,8.13
2019-01-23T15:16:35.320Z,8.30
2019-01-23T15:19:05.853Z,8.03
2019-01-23T15:21:35.665Z,7.43
2019-01-23T15:24:06.038Z,7.67
2019-01-23T15:26:36.724Z,8.37
2019-01-23T15:29:06.549Z,8.23
2019-01-23T15:31:37.022Z,9.37
2019-01-23T15:34:07.597Z,8.13
2019-01-23T15:36:37.321Z,8.57
2019-01-23T15:39:08.481Z,8.40
2019-01-23T15:41:39.285Z,8.03
2019-01-23T15:44:09.057Z,8.07
2019-01-23T15:46:39.133Z,8.50
2019-01-23T15:49:09.769Z,8.70
2019-01-23T15:51:40.156Z,8.60
2019-01-23T15:54:10.101Z,8.33
2019-01-23T15:56:40.365Z,8.93
2019-01-23T15:59:10.530Z,8.90
2019-01-23T16:01:40.811Z,8.27
2019-01-23T16:04:11.609Z,8.17
2019-01-23T16:06:41.945Z,8.73
2019-01-23T16:09:12.049Z,8.73
2019-01-23T16:11:42.129Z,8.33
2019-01-23T16:14:13.147Z,8.70
2019-01-23T16:16:44.273Z,8.10
2019-01-23T16:19:14.905Z,7.83
2019-01-23T16:21:46.009Z,8.30
2019-01-23T16:24:17.065Z,8.60
2019-01-23T16:26:48.659Z,9.63
2019-01-23T16:29:19.275Z,8.43
2019-01-23T16:31:49.805Z,7.83
2019-01-23T16:34:19.553Z,8.20
2019-01-23T16:36:49.595Z,8.27
2019-01-23T16:39:20.377Z,8.30
2019-01-23T16:41:50.627Z,8.53
2019-01-23T16:44:20.277Z,8.93
2019-01-23T16:46:49.973Z,8.00
2019-01-23T16:49:20.525Z,8.57
2019-01-23T16:51:51.382Z,8.37
2019-01-23T16:54:21.557Z,8.23
2019-01-23T16:56:51.485Z,8.20
2019-01-23T16:59:21.417Z,8.87
2019-01-23T17:01:51.334Z,8.97
2019-01-23T17:04:21.491Z,8.97
2019-01-23T17:06:52.818Z,8.40
2019-01-23T17:09:22.717Z,8.80
2019-01-23T17:11:52.293Z,9.17
2019-01-23T17:14:22.446Z,8.90
2019-01-23T17:16:52.753Z,9.33
2019-01-23T17:19:22.650Z,8.63
2019-01-23T17:21:52.369Z,8.57
2019-01-23T17:24:23.094Z,8.40
2019-01-23T17:26:53.535Z,9.13
2019-01-23T17:29:30.775Z,9.40
2019-01-23T17:31:59.578Z,9.87
2019-01-23T17:34:30.045Z,9.50
2019-01-23T17:36:59.728Z,9.20
2019-01-23T17:39:30.654Z,9.80
2019-01-23T17:42:00.672Z,10.67
2019-01-23T17:44:30.477Z,9.60
2019-01-23T17:47:00.697Z,9.23
2019-01-23T17:49:31.029Z,8.57
2019-01-23T17:52:00.863Z,9.13
2019-01-23T17:54:30.789Z,8.70
2019-01-23T17:57:00.785Z,9.07
2019-01-23T17:59:31.584Z,8.43
2019-01-23T18:02:01.492Z,10.00
2019-01-23T18:04:33.246Z,8.83
2019-01-23T18:07:03.305Z,9.80
2019-01-23T18:09:32.967Z,9.67
2019-01-23T18:12:02.987Z,9.80
2019-01-23T18:14:32.721Z,12.87
2019-01-23T18:17:04.397Z,9.97
2019-01-23T18:19:34.341Z,11.20
2019-01-23T18:22:04.743Z,11.33
2019-01-23T18:24:34.629Z,10.93
2019-01-23T18:27:05.168Z,10.33
2019-01-23T18:29:35.521Z,9.87
2019-01-23T18:32:07.192Z,11.50
2019-01-23T18:34:48.853Z,9.87
2019-01-23T18:37:23.517Z,10.80
2019-01-23T18:40:05.017Z,10.63
2019-01-23T18:42:45.753Z,10.43
2019-01-23T18:45:28.254Z,9.67
2019-01-23T18:48:19.581Z,10.00
2019-01-23T18:51:11.765Z,10.33
2019-01-23T18:53:42.052Z,10.57
2019-01-23T18:56:12.788Z,10.33
2019-01-23T18:58:42.552Z,10.90
2019-01-23T19:01:12.220Z,9.67
2019-01-23T19:03:41.986Z,10.20
2019-01-23T19:06:12.485Z,13.73
2019-01-23T19:08:43.261Z,12.33
2019-01-23T19:11:12.623Z,14.00
2019-01-23T19:13:43.966Z,13.03
2019-01-23T19:16:13.796Z,13.17
2019-01-23T19:18:47.973Z,13.83
2019-01-23T19:21:17.908Z,13.33
2019-01-23T19:23:47.749Z,14.23
2019-01-23T19:26:17.661Z,13.90
2019-01-23T19:28:47.705Z,13.27
2019-01-23T19:31:18.597Z,12.90
2019-01-23T19:33:48.637Z,12.27
2019-01-23T19:36:18.379Z,13.63
2019-01-23T19:38:58.107Z,12.97
2019-01-23T19:41:28.145Z,12.60
2019-01-23T19:43:58.477Z,12.53
2019-01-23T19:46:28.801Z,13.37
2019-01-23T19:49:00.036Z,13.20
2019-01-23T19:51:29.957Z,13.13
2019-01-23T19:54:00.093Z,12.67
2019-01-23T19:56:30.337Z,13.00
2019-01-23T19:59:00.573Z,12.83
2019-01-23T20:01:30.869Z,12.37
2019-01-23T20:04:00.771Z,12.47
2019-01-23T20:06:30.672Z,13.33
2019-01-23T20:09:00.416Z,12.00
2019-01-23T20:11:30.864Z,12.97
2019-01-23T20:14:01.349Z,12.03
2019-01-23T20:16:31.802Z,12.83
2019-01-23T20:19:02.769Z,13.10
2019-01-23T20:21:32.449Z,12.43
2019-01-23T20:24:02.458Z,12.87
2019-01-23T20:26:32.089Z,13.83
2019-01-23T20:29:02.470Z,12.80
2019-01-23T20:31:32.752Z,12.80
2019-01-23T20:34:03.821Z,12.57
2019-01-23T20:36:33.592Z,12.47
2019-01-23T20:39:04.582Z,12.80
2019-01-23T20:41:37.157Z,12.87
2019-01-23T20:44:07.422Z,12.80
2019-01-23T20:46:37.390Z,13.73
2019-01-23T20:49:07.037Z,14.07
2019-01-23T20:51:36.886Z,13.80
2019-01-23T20:54:06.710Z,13.47
2019-01-23T20:56:36.513Z,14.27
2019-01-23T20:59:06.433Z,13.53
2019-01-23T21:01:37.766Z,13.80
2019-01-23T21:04:08.101Z,12.83
2019-01-23T21:06:38.641Z,12.90
2019-01-23T21:09:09.599Z,13.67
2019-01-23T21:11:40.094Z,14.30
2019-01-23T21:14:10.086Z,12.97
2019-01-23T21:16:41.949Z,13.77
2019-01-23T21:19:13.145Z,12.63
2019-01-23T21:21:43.485Z,14.10
2019-01-23T21:24:13.909Z,14.30
2019-01-23T21:26:44.341Z,13.43
2019-01-23T21:29:14.117Z,13.63
2019-01-23T21:31:45.653Z,13.80
2019-01-23T21:34:15.533Z,12.97
2019-01-23T21:36:45.613Z,12.13
2019-01-23T21:39:15.282Z,13.90
2019-01-23T21:41:46.165Z,13.23
2019-01-23T21:44:18.869Z,12.87
2019-01-23T21:46:49.789Z,13.00
2019-01-23T21:49:20.153Z,12.67
2019-01-23T21:51:50.028Z,12.53
2019-01-23T21:54:19.927Z,12.67
2019-01-23T21:56:51.089Z,12.87
2019-01-23T21:59:22.114Z,14.00
2019-01-23T22:01:52.830Z,12.87
2019-01-23T22:04:22.833Z,13.27
2019-01-23T22:06:52.619Z,17.40
2019-01-23T22:09:22.401Z,16.70
2019-01-23T22:11:52.478Z,14.37
2019-01-23T22:14:22.335Z,13.83
2019-01-23T22:16:52.293Z,13.40
2019-01-23T22:19:21.837Z,12.93
2019-01-23T22:21:51.278Z,13.57
2019-01-23T22:24:21.417Z,13.97
2019-01-23T22:26:52.537Z,14.20
2019-01-23T22:29:22.898Z,15.93
2019-01-23T22:31:53.755Z,18.23
2019-01-23T22:34:23.679Z,19.70
2019-01-23T22:36:54.405Z,18.50
2019-01-23T22:39:25.472Z,16.37
2019-01-23T22:41:56.354Z,15.40
2019-01-23T22:44:25.957Z,15.47
2019-01-23T22:46:55.553Z,13.23
2019-01-23T22:49:25.469Z,13.03
2019-01-23T22:51:55.203Z,13.23
2019-01-23T22:54:25.610Z,12.53
2019-01-23T22:56:55.409Z,11.70
2019-01-23T22:59:25.126Z,13.40
2019-01-23T23:01:55.161Z,12.47
2019-01-23T23:04:25.072Z,12.03
2019-01-23T23:06:55.613Z,11.67
2019-01-23T23:09:26.057Z,12.00
2019-01-23T23:11:57.017Z,12.43
2019-01-23T23:14:27.461Z,11.73
2019-01-23T23:16:57.749Z,12.27
2019-01-23T23:19:27.705Z,11.97
2019-01-23T23:21:57.253Z,15.50
2019-01-23T23:24:26.957Z,16.83
2019-01-23T23:26:57.401Z,15.00
2019-01-23T23:29:27.025Z,14.57
2019-01-23T23:31:56.748Z,13.93
2019-01-23T23:34:27.017Z,12.80
2019-01-23T23:36:57.301Z,12.80
2019-01-23T23:39:27.228Z,13.27
2019-01-23T23:41:58.714Z,12.80
2019-01-23T23:44:28.424Z,11.73
2019-01-23T23:47:00.246Z,12.23
2019-01-23T23:49:30.139Z,11.97
2019-01-23T23:52:01.309Z,13.63
2019-01-23T23:54:31.696Z,11.87
2019-01-23T23:57:03.867Z,12.93
2019-01-23T23:59:34.437Z,12.47
